Aérodrome :
LOGIN :

S'inscrire | Disclaimer

   EN    FR    IT 

 










Légende :    VFR   VFR Marginal   IFR   IFR Intensif   IFR Très Intensif
Visi : 
Plafond : 
>= 8 km
>= 3000ft
5 à 8 km
1000 à 3000 ft
1500m à 5 km
500 à 1000 ft
800 à 1500m
200 à 500 ft
< 800m
< 200 ft
Symboles :   Orages  Brouillard  Fortes neiges  Fortes précipitations  Vent > 20 kt
SIGMETs :   Divers  Orages  Givrage  Turbulence  Onde Orograph.  Cendres Volcan.






- Altitude de l'aérodrome : 726 ft
- Code IATA : DIJ


LFSD - Dijon

DERNIER METAR :
  • 260000Z AUTO 00000KT 0800 0500 R35/1500D FZFG NSC M00/M00 Q1021

METARs EXPIRÉS :
  • 252330Z AUTO 01002KT 3000 1300 R35/1700D BR NSC 00/00 Q1021
  • 252300Z AUTO 32003KT 270V360 4000 BR FEW003 M00/M00 Q1021
  • 252230Z AUTO 33002KT 0550 0500 R35/0600N FZFG FEW003 M00/M00 Q1020
  • 252200Z AUTO 34002KT 2900 0600 R35/0750D BCFG NSC 01/01 Q1020

Prévision TAF périmée.



MET'MAP, la Météo Aéronautique d'un coup d'oeil ! - Copyright ORBIFLY Décembre 2007 - Disclaimer

ORBIFLY MET'MAP TEAM :

Programmation & Développement : Alexandra Zaïnal
Sur une idée originale de : Baudouin d'Aumeries
Assistance à la programmation : Marc-Olivier Méhu
Soutien technique & logistique : Manuel Goepfert

Contact : metmap@orbifly.com




SOURCES & CREDITS :

   NOAA